createdAt,value
2023-02-19T00:00:20.885Z,23.80
2023-02-19T00:03:13.650Z,13.00
2023-02-19T00:05:44.251Z,9.40
2023-02-19T00:08:14.500Z,7.70
2023-02-19T00:10:44.794Z,7.70
2023-02-19T00:13:16.143Z,9.40
2023-02-19T00:15:46.293Z,8.80
2023-02-19T00:18:16.725Z,8.90
2023-02-19T00:20:47.333Z,8.90
2023-02-19T00:23:17.716Z,8.80
2023-02-19T00:25:48.132Z,7.60
2023-02-19T00:28:19.051Z,10.40
2023-02-19T00:30:49.370Z,8.40
2023-02-19T00:33:19.667Z,10.10
2023-02-19T00:35:50.421Z,9.30
2023-02-19T00:38:20.636Z,9.10
2023-02-19T00:40:50.852Z,10.70
2023-02-19T00:43:22.190Z,10.30
2023-02-19T00:45:52.966Z,10.30
2023-02-19T00:48:23.339Z,9.70
2023-02-19T00:50:53.471Z,9.30
2023-02-19T00:53:24.435Z,8.50
2023-02-19T00:55:55.027Z,10.00
2023-02-19T00:58:25.616Z,12.30
2023-02-19T01:00:55.980Z,8.80
2023-02-19T01:03:26.720Z,7.60
2023-02-19T01:05:56.994Z,8.30
2023-02-19T01:08:28.137Z,7.60
2023-02-19T01:10:58.515Z,7.80
2023-02-19T01:13:29.060Z,8.00
2023-02-19T01:16:06.263Z,7.80
2023-02-19T01:18:37.212Z,10.10
2023-02-19T01:21:08.929Z,8.70
2023-02-19T01:23:39.899Z,9.20
2023-02-19T01:26:12.558Z,8.90
2023-02-19T01:28:43.310Z,7.80
2023-02-19T01:31:16.638Z,7.50
2023-02-19T01:33:47.978Z,8.70
2023-02-19T01:36:18.535Z,9.00
2023-02-19T01:38:49.528Z,11.30
2023-02-19T01:41:22.578Z,8.30
2023-02-19T01:43:59.777Z,8.80
2023-02-19T01:46:32.407Z,8.00
2023-02-19T01:49:05.561Z,8.00
2023-02-19T01:51:38.928Z,6.10
2023-02-19T01:54:11.235Z,8.30
2023-02-19T01:56:44.309Z,12.30
2023-02-19T01:59:15.314Z,13.80
2023-02-19T02:01:45.693Z,13.60
2023-02-19T02:04:17.183Z,8.70
2023-02-19T02:06:50.506Z,15.80
2023-02-19T02:09:40.280Z,12.00
2023-02-19T02:12:12.554Z,8.60
2023-02-19T02:14:45.328Z,6.50
2023-02-19T02:17:19.530Z,11.60
2023-02-19T02:20:21.102Z,7.90
2023-02-19T02:22:55.595Z,6.50
2023-02-19T02:25:41.396Z,7.50
2023-02-19T02:28:28.096Z,7.20
2023-02-19T02:31:03.047Z,7.60
2023-02-19T02:33:39.372Z,10.00
2023-02-19T02:36:15.502Z,10.40
2023-02-19T02:38:48.651Z,7.90
2023-02-19T02:41:18.870Z,9.20
2023-02-19T02:43:49.133Z,13.70
2023-02-19T02:46:23.156Z,18.60
2023-02-19T02:48:56.268Z,11.80
2023-02-19T02:51:29.799Z,9.00
2023-02-19T02:54:20.527Z,7.00
2023-02-19T02:56:51.821Z,10.40
2023-02-19T02:59:24.479Z,9.90
2023-02-19T03:02:12.694Z,7.60
2023-02-19T03:05:07.590Z,8.10
2023-02-19T03:07:39.386Z,8.30
2023-02-19T03:10:12.783Z,11.00
2023-02-19T03:13:01.769Z,12.90
2023-02-19T03:15:55.693Z,9.30
2023-02-19T03:18:46.190Z,11.40
2023-02-19T03:21:18.434Z,10.00
2023-02-19T03:24:06.580Z,9.10
2023-02-19T03:26:38.847Z,8.80
2023-02-19T03:29:26.350Z,13.10
2023-02-19T03:31:59.997Z,8.10
2023-02-19T03:34:33.045Z,7.60
2023-02-19T03:37:09.995Z,9.00
2023-02-19T03:39:46.334Z,10.10
2023-02-19T03:42:21.684Z,10.90
2023-02-19T03:45:10.939Z,10.30
2023-02-19T03:47:47.982Z,16.20
2023-02-19T03:52:56.650Z,8.00
2023-02-19T03:55:31.099Z,10.20
2023-02-19T03:58:04.993Z,12.80
2023-02-19T04:00:39.523Z,11.20
2023-02-19T04:03:16.327Z,12.30
2023-02-19T04:05:50.932Z,12.30
2023-02-19T04:08:22.910Z,12.50
2023-02-19T04:10:54.431Z,10.20
2023-02-19T04:13:27.180Z,9.80
2023-02-19T04:16:01.484Z,9.20
2023-02-19T04:18:33.999Z,9.70
2023-02-19T04:21:05.951Z,11.40
2023-02-19T04:23:39.257Z,8.30
2023-02-19T04:26:10.262Z,13.20
2023-02-19T04:28:43.075Z,8.70
2023-02-19T04:31:14.159Z,9.40
2023-02-19T04:33:45.356Z,8.50
2023-02-19T04:36:15.703Z,8.80
2023-02-19T04:38:46.806Z,9.10
2023-02-19T04:41:18.418Z,11.40
2023-02-19T04:43:48.581Z,8.80
2023-02-19T04:46:19.374Z,9.20
2023-02-19T04:48:52.097Z,7.50
2023-02-19T04:51:22.803Z,10.00
2023-02-19T04:53:53.273Z,9.50
2023-02-19T04:56:24.163Z,10.10
2023-02-19T04:58:54.372Z,10.60
2023-02-19T05:01:24.645Z,8.90
2023-02-19T05:03:56.194Z,14.50
2023-02-19T05:06:30.370Z,12.40
2023-02-19T05:09:03.079Z,9.80
2023-02-19T05:11:33.623Z,10.40
2023-02-19T05:14:04.323Z,10.80
2023-02-19T05:16:36.506Z,14.20
2023-02-19T05:19:08.202Z,9.10
2023-02-19T05:21:41.719Z,14.30
2023-02-19T05:24:13.885Z,9.10
2023-02-19T05:26:45.734Z,12.00
2023-02-19T05:29:17.070Z,10.20
2023-02-19T05:31:48.771Z,8.50
2023-02-19T05:34:19.196Z,10.50
2023-02-19T05:36:50.867Z,7.10
2023-02-19T05:39:21.499Z,6.90
2023-02-19T05:41:52.396Z,7.40
2023-02-19T05:44:22.991Z,8.10
2023-02-19T05:46:53.467Z,9.50
2023-02-19T05:49:23.979Z,5.30
2023-02-19T05:51:55.255Z,6.50
2023-02-19T05:54:25.493Z,7.20
2023-02-19T05:56:55.948Z,7.40
2023-02-19T05:59:26.963Z,5.90
2023-02-19T06:01:58.103Z,4.30
2023-02-19T06:04:28.704Z,5.10
2023-02-19T06:06:59.353Z,7.90
2023-02-19T06:09:29.632Z,3.80
2023-02-19T06:12:00.064Z,7.80
2023-02-19T06:14:30.555Z,6.70
2023-02-19T06:17:01.375Z,8.50
2023-02-19T06:19:31.646Z,4.10
2023-02-19T06:22:02.003Z,8.00
2023-02-19T06:24:32.605Z,4.60
2023-02-19T06:27:02.824Z,6.40
2023-02-19T06:29:34.169Z,5.10
2023-02-19T06:32:04.929Z,6.00
2023-02-19T06:34:35.891Z,6.00
2023-02-19T06:37:06.217Z,7.90
2023-02-19T06:39:37.971Z,6.90
2023-02-19T06:42:08.581Z,6.20
2023-02-19T06:44:38.812Z,5.70
2023-02-19T06:47:09.128Z,4.40
2023-02-19T06:49:40.576Z,3.90
2023-02-19T06:52:11.162Z,6.00
2023-02-19T06:54:43.711Z,5.60
2023-02-19T06:57:14.574Z,9.60
2023-02-19T06:59:45.461Z,7.30
2023-02-19T07:02:15.825Z,3.70
2023-02-19T07:04:47.184Z,1.60
2023-02-19T07:07:17.359Z,6.60
2023-02-19T07:09:47.802Z,2.90
2023-02-19T07:12:18.062Z,7.80
2023-02-19T07:14:48.666Z,7.00
2023-02-19T07:17:19.381Z,6.70
2023-02-19T07:19:49.927Z,4.30
2023-02-19T07:22:20.491Z,7.80
2023-02-19T07:24:52.271Z,3.20
2023-02-19T07:27:22.516Z,3.60
2023-02-19T07:29:52.864Z,3.30
2023-02-19T07:32:23.758Z,2.00
2023-02-19T07:34:54.333Z,2.80
2023-02-19T07:37:25.757Z,3.10
2023-02-19T07:39:56.327Z,7.30
2023-02-19T07:42:28.027Z,3.20
2023-02-19T07:45:00.719Z,3.20
2023-02-19T07:47:31.769Z,3.40
2023-02-19T07:50:03.116Z,4.80
2023-02-19T07:52:37.048Z,7.90
2023-02-19T07:55:08.437Z,7.30
2023-02-19T07:57:39.156Z,5.00
2023-02-19T08:00:12.272Z,3.90
2023-02-19T08:03:00.869Z,9.10
2023-02-19T08:05:32.901Z,6.00
2023-02-19T08:08:03.598Z,6.70
2023-02-19T08:10:51.426Z,7.90
2023-02-19T08:13:25.748Z,5.80
2023-02-19T08:16:10.902Z,5.50
2023-02-19T08:18:47.953Z,9.30
2023-02-19T08:21:18.652Z,4.80
2023-02-19T08:23:51.205Z,6.10
2023-02-19T08:26:21.961Z,5.70
2023-02-19T08:28:52.272Z,5.40
2023-02-19T08:31:22.707Z,6.80
2023-02-19T08:33:53.996Z,7.30
2023-02-19T08:36:24.608Z,4.90
2023-02-19T08:38:55.000Z,6.50
2023-02-19T08:41:25.364Z,5.00
2023-02-19T08:43:56.411Z,7.00
2023-02-19T08:46:27.299Z,8.30
2023-02-19T08:48:57.803Z,5.30
2023-02-19T08:51:28.073Z,6.80
2023-02-19T08:53:59.356Z,6.70
2023-02-19T08:56:29.731Z,6.40
2023-02-19T08:59:00.310Z,6.00
2023-02-19T09:01:31.373Z,5.00
2023-02-19T09:04:02.865Z,8.20
2023-02-19T09:06:33.181Z,5.20
2023-02-19T09:09:03.334Z,5.80
2023-02-19T09:11:33.563Z,5.10
2023-02-19T09:14:07.208Z,7.90
2023-02-19T09:16:37.694Z,6.20
2023-02-19T09:19:08.311Z,4.80
2023-02-19T09:21:38.386Z,7.50
2023-02-19T09:24:10.589Z,6.20
2023-02-19T09:26:41.183Z,6.70
2023-02-19T09:29:12.928Z,6.70
2023-02-19T09:31:44.286Z,6.20
2023-02-19T09:34:14.941Z,6.40
2023-02-19T09:36:45.833Z,6.80
2023-02-19T09:39:16.341Z,8.00
2023-02-19T09:41:50.207Z,6.90
2023-02-19T09:44:26.275Z,8.80
2023-02-19T09:46:56.816Z,7.40
2023-02-19T09:49:34.386Z,8.10
2023-02-19T09:52:09.992Z,7.00
2023-02-19T09:54:40.516Z,12.50
2023-02-19T09:57:15.667Z,5.80
2023-02-19T09:59:49.721Z,9.20
2023-02-19T10:02:21.907Z,5.40
2023-02-19T10:04:52.905Z,4.90
2023-02-19T10:07:25.871Z,6.40
2023-02-19T10:09:57.918Z,7.90
2023-02-19T10:12:30.648Z,5.70
2023-02-19T10:15:05.210Z,8.40
2023-02-19T10:17:37.116Z,5.80
2023-02-19T10:20:10.133Z,6.70
2023-02-19T10:22:40.725Z,5.50
2023-02-19T10:25:15.173Z,7.70
2023-02-19T10:27:45.746Z,10.60
2023-02-19T10:30:23.801Z,7.90
2023-02-19T10:33:05.847Z,6.50
2023-02-19T10:35:38.128Z,8.60
2023-02-19T10:38:08.732Z,5.90
2023-02-19T10:40:46.025Z,9.00
2023-02-19T10:43:25.514Z,9.20
2023-02-19T10:46:03.970Z,5.20
2023-02-19T10:48:37.234Z,9.20
2023-02-19T10:51:12.180Z,7.20
2023-02-19T10:53:45.312Z,5.50
2023-02-19T10:56:23.763Z,7.70
2023-02-19T10:58:54.879Z,5.70
2023-02-19T11:01:26.731Z,6.70
2023-02-19T11:04:17.093Z,4.90
2023-02-19T11:06:47.560Z,5.30
2023-02-19T11:09:26.411Z,17.90
2023-02-19T11:11:59.231Z,9.60
2023-02-19T11:14:34.227Z,7.80
2023-02-19T11:17:06.316Z,7.10
2023-02-19T11:19:39.987Z,8.40
2023-02-19T11:22:31.184Z,5.80
2023-02-19T11:25:05.606Z,5.90
2023-02-19T11:27:36.914Z,5.10
2023-02-19T11:30:34.463Z,5.60
2023-02-19T11:46:23.444Z,4.30
2023-02-19T11:49:00.567Z,4.50
2023-02-19T11:51:44.196Z,5.60
2023-02-19T11:54:45.467Z,8.50
2023-02-19T11:57:33.546Z,9.40
2023-02-19T12:00:28.404Z,6.90
2023-02-19T12:03:36.748Z,4.30
2023-02-19T12:06:20.531Z,4.60
2023-02-19T12:09:21.320Z,5.30
2023-02-19T12:12:06.110Z,6.10
2023-02-19T12:14:56.601Z,4.10
2023-02-19T12:17:47.372Z,11.10
2023-02-19T12:20:31.931Z,8.30
2023-02-19T12:23:19.425Z,6.80
2023-02-19T12:25:59.595Z,5.40
2023-02-19T12:34:49.474Z,6.00
2023-02-19T12:37:36.459Z,7.30
2023-02-19T12:40:22.447Z,6.40
2023-02-19T12:43:10.585Z,5.50
2023-02-19T12:45:47.276Z,8.30
2023-02-19T12:48:36.075Z,4.90
2023-02-19T12:51:16.581Z,7.00
2023-02-19T12:53:58.473Z,5.30
2023-02-19T12:56:34.820Z,3.60
2023-02-19T12:59:12.716Z,3.70
2023-02-19T13:01:51.209Z,5.80
2023-02-19T13:04:34.962Z,4.40
2023-02-19T13:07:11.969Z,4.60
2023-02-19T13:09:53.809Z,7.60
2023-02-19T13:12:33.093Z,4.50
2023-02-19T13:15:14.632Z,9.20
2023-02-19T13:18:01.639Z,4.80
2023-02-19T13:20:41.144Z,3.60
2023-02-19T13:23:36.204Z,5.40
2023-02-19T13:26:27.978Z,4.20
2023-02-19T13:29:21.104Z,4.80
2023-02-19T13:32:12.483Z,4.20
2023-02-19T13:34:58.335Z,5.80
2023-02-19T13:37:39.019Z,7.40
2023-02-19T13:40:24.779Z,7.70
2023-02-19T13:43:02.995Z,5.50
2023-02-19T13:45:39.795Z,3.80
2023-02-19T13:48:30.351Z,4.40
2023-02-19T13:51:47.093Z,5.10
2023-02-19T13:54:29.894Z,4.20
2023-02-19T13:57:27.301Z,4.80
2023-02-19T14:00:01.600Z,3.70
2023-02-19T14:02:38.558Z,4.90
2023-02-19T14:07:58.762Z,5.20
2023-02-19T14:11:02.797Z,4.60
2023-02-19T14:14:07.185Z,7.50
2023-02-19T14:17:18.242Z,4.70
2023-02-19T14:19:54.732Z,7.30
2023-02-19T14:23:06.148Z,7.00
2023-02-19T14:25:49.150Z,4.40
2023-02-19T14:28:27.603Z,4.00
2023-02-19T14:31:03.531Z,5.50
2023-02-19T14:33:38.388Z,5.10
2023-02-19T14:36:28.500Z,6.30
2023-02-19T14:39:07.895Z,4.20
2023-02-19T14:41:48.969Z,5.80
2023-02-19T14:44:25.778Z,4.80
2023-02-19T14:47:01.794Z,4.50
2023-02-19T14:49:43.191Z,4.80
2023-02-19T14:52:19.691Z,11.30
2023-02-19T14:54:55.371Z,5.60
2023-02-19T14:57:32.764Z,5.30
2023-02-19T15:00:22.307Z,5.30
2023-02-19T15:02:57.990Z,6.30
2023-02-19T15:05:38.550Z,4.50
2023-02-19T15:08:19.117Z,3.30
2023-02-19T15:10:53.655Z,3.30
2023-02-19T15:13:32.829Z,4.00
2023-02-19T15:16:06.832Z,6.10
2023-02-19T15:18:41.725Z,7.50
2023-02-19T15:21:25.809Z,6.20
2023-02-19T15:24:06.369Z,6.00
2023-02-19T15:26:42.330Z,4.50
2023-02-19T15:29:18.212Z,4.00
2023-02-19T15:31:54.293Z,14.20
2023-02-19T15:34:31.265Z,6.50
2023-02-19T15:37:11.617Z,2.70
2023-02-19T15:39:48.459Z,2.50
2023-02-19T15:42:27.841Z,4.60
2023-02-19T15:45:06.644Z,1.70
2023-02-19T15:47:44.367Z,4.00
2023-02-19T15:50:20.883Z,6.70
2023-02-19T15:53:02.114Z,5.90
2023-02-19T15:55:40.897Z,5.60
2023-02-19T15:58:26.079Z,5.80
2023-02-19T16:01:04.816Z,3.20
2023-02-19T16:03:41.328Z,2.70
2023-02-19T16:06:17.221Z,4.20
2023-02-19T16:09:22.214Z,6.60
2023-02-19T16:12:00.271Z,3.50
2023-02-19T16:14:37.687Z,3.50
2023-02-19T16:17:38.332Z,3.10
2023-02-19T16:20:33.502Z,7.80
2023-02-19T16:23:15.044Z,4.30
2023-02-19T16:25:52.904Z,3.40
2023-02-19T16:28:35.719Z,2.90
2023-02-19T16:31:18.158Z,2.10
2023-02-19T16:33:55.042Z,3.10
2023-02-19T16:36:38.540Z,2.10
2023-02-19T16:39:27.392Z,3.80
2023-02-19T16:42:20.634Z,1.60
2023-02-19T16:44:55.052Z,1.50
2023-02-19T16:47:38.526Z,2.60
2023-02-19T16:50:19.265Z,2.00
2023-02-19T16:52:56.904Z,2.90
2023-02-19T16:55:33.044Z,4.50
2023-02-19T16:58:09.092Z,1.10
2023-02-19T17:00:42.670Z,2.50
2023-02-19T17:03:19.375Z,2.10
2023-02-19T17:05:54.115Z,2.20
2023-02-19T17:08:40.089Z,2.60
2023-02-19T17:11:17.500Z,2.80
2023-02-19T17:13:51.759Z,5.10
2023-02-19T17:16:27.569Z,5.00
2023-02-19T17:19:01.533Z,6.60
2023-02-19T17:21:35.243Z,6.90
2023-02-19T17:24:09.695Z,3.50
2023-02-19T17:26:43.308Z,3.60
2023-02-19T17:29:19.024Z,2.70
2023-02-19T17:31:52.793Z,3.10
2023-02-19T17:34:27.449Z,4.20
2023-02-19T17:37:00.898Z,3.40
2023-02-19T17:39:34.557Z,7.40
2023-02-19T17:42:08.773Z,4.70
2023-02-19T17:44:42.951Z,5.80
2023-02-19T17:47:16.876Z,6.30
2023-02-19T17:49:53.089Z,3.00
2023-02-19T17:52:29.767Z,3.40
2023-02-19T17:55:03.428Z,3.70
2023-02-19T17:57:37.169Z,2.60
2023-02-19T18:00:17.822Z,2.70
2023-02-19T18:02:52.090Z,3.30
2023-02-19T18:05:27.646Z,4.20
2023-02-19T18:08:03.100Z,6.50
2023-02-19T18:10:36.571Z,4.10
2023-02-19T18:13:11.780Z,3.70
2023-02-19T18:15:45.336Z,4.60
2023-02-19T18:18:19.309Z,3.80
2023-02-19T18:20:54.473Z,6.00
2023-02-19T18:23:28.302Z,5.90
2023-02-19T18:26:02.182Z,3.30
2023-02-19T18:28:40.945Z,4.10
2023-02-19T18:31:15.198Z,5.70
2023-02-19T18:33:50.479Z,4.80
2023-02-19T18:36:26.830Z,5.30
2023-02-19T18:39:00.805Z,4.40
2023-02-19T18:41:36.982Z,4.00
2023-02-19T18:44:14.323Z,3.70
2023-02-19T18:46:52.682Z,5.10
2023-02-19T18:49:26.512Z,6.00
2023-02-19T18:52:02.448Z,6.80
2023-02-19T18:54:50.471Z,3.30
2023-02-19T18:57:33.681Z,3.90
2023-02-19T19:00:09.500Z,3.70
2023-02-19T19:02:54.642Z,4.80
2023-02-19T19:05:33.913Z,2.60
2023-02-19T19:08:09.496Z,4.00
2023-02-19T19:10:43.971Z,2.60
2023-02-19T19:13:31.874Z,2.00
2023-02-19T19:16:14.467Z,4.60
2023-02-19T19:18:50.494Z,2.90
2023-02-19T19:21:27.252Z,2.30
2023-02-19T19:26:51.536Z,1.40
2023-02-19T19:29:26.084Z,6.30
2023-02-19T19:32:03.328Z,4.80
2023-02-19T19:34:40.295Z,2.90
2023-02-19T19:37:15.418Z,2.00
2023-02-19T19:39:49.486Z,1.80
2023-02-19T19:42:22.908Z,1.10
2023-02-19T19:45:01.960Z,3.30
2023-02-19T19:47:38.137Z,1.30
2023-02-19T19:50:22.270Z,2.10
2023-02-19T19:53:01.862Z,0.80
2023-02-19T19:55:41.465Z,0.60
2023-02-19T19:58:17.301Z,0.70
2023-02-19T20:01:04.982Z,2.40
2023-02-19T20:06:11.433Z,0.60
2023-02-19T20:08:45.181Z,1.30
2023-02-19T20:11:23.776Z,1.30
2023-02-19T20:13:58.949Z,2.10
2023-02-19T20:16:35.267Z,1.50
2023-02-19T20:19:09.676Z,1.80
2023-02-19T20:21:43.722Z,1.40
2023-02-19T20:24:19.813Z,1.10
2023-02-19T20:26:53.577Z,1.20
2023-02-19T20:29:29.833Z,1.00
2023-02-19T20:32:04.681Z,1.40
2023-02-19T20:34:38.560Z,3.50
2023-02-19T20:37:12.739Z,2.70
2023-02-19T20:39:46.969Z,1.10
2023-02-19T20:42:23.733Z,1.20
2023-02-19T20:44:57.674Z,1.80
2023-02-19T20:47:32.924Z,1.30
2023-02-19T20:50:09.271Z,1.20
2023-02-19T20:52:45.422Z,1.80
2023-02-19T20:55:19.880Z,1.60
2023-02-19T20:57:53.681Z,2.40
2023-02-19T21:00:28.122Z,1.50
2023-02-19T21:03:01.828Z,3.40
2023-02-19T21:05:37.792Z,1.50
2023-02-19T21:08:12.502Z,2.20
2023-02-19T21:10:47.943Z,0.90
2023-02-19T21:13:22.426Z,1.70
2023-02-19T21:15:57.638Z,1.30
2023-02-19T21:18:32.481Z,2.30
2023-02-19T21:21:06.943Z,3.50
2023-02-19T21:23:42.213Z,2.00
2023-02-19T21:26:16.242Z,1.40
2023-02-19T21:28:52.234Z,2.10
2023-02-19T21:31:26.390Z,1.20
2023-02-19T21:34:00.163Z,1.90
2023-02-19T21:36:33.732Z,5.40
2023-02-19T21:39:07.628Z,1.70
2023-02-19T21:41:42.128Z,1.20
2023-02-19T21:44:16.327Z,0.90
2023-02-19T21:46:50.667Z,1.00
2023-02-19T21:49:24.451Z,0.70
2023-02-19T21:51:58.546Z,0.90
2023-02-19T21:54:32.471Z,0.80
2023-02-19T21:57:09.890Z,1.30
2023-02-19T21:59:45.286Z,2.70
2023-02-19T22:02:20.334Z,0.80
2023-02-19T22:04:58.078Z,1.00
2023-02-19T22:07:31.929Z,0.90
2023-02-19T22:10:08.290Z,0.90
2023-02-19T22:12:41.796Z,1.10
2023-02-19T22:15:15.784Z,1.70
2023-02-19T22:17:50.121Z,1.10
2023-02-19T22:20:24.124Z,0.60
2023-02-19T22:22:57.529Z,6.40
2023-02-19T22:25:31.803Z,2.00
2023-02-19T22:28:08.050Z,1.30
2023-02-19T22:30:43.267Z,0.60
2023-02-19T22:33:16.939Z,1.80
2023-02-19T22:35:50.768Z,1.00
2023-02-19T22:38:24.236Z,1.20
2023-02-19T22:40:59.903Z,1.10
2023-02-19T22:43:33.873Z,1.00
2023-02-19T22:46:10.398Z,1.00
2023-02-19T22:48:44.435Z,1.00
2023-02-19T22:51:19.115Z,0.90
2023-02-19T22:53:54.397Z,0.80
2023-02-19T22:56:29.370Z,0.80
2023-02-19T22:59:03.108Z,1.10
2023-02-19T23:01:37.059Z,0.90
2023-02-19T23:04:10.718Z,0.60
2023-02-19T23:06:45.860Z,0.60
2023-02-19T23:09:24.179Z,2.80
2023-02-19T23:12:05.330Z,1.10
2023-02-19T23:14:38.894Z,0.80
2023-02-19T23:17:13.059Z,1.00
2023-02-19T23:19:46.634Z,0.30
2023-02-19T23:22:22.340Z,1.30
2023-02-19T23:24:56.305Z,1.00
2023-02-19T23:27:30.540Z,0.90
2023-02-19T23:30:04.111Z,1.30
2023-02-19T23:32:37.787Z,2.10
2023-02-19T23:35:14.198Z,1.60
2023-02-19T23:37:49.253Z,1.80
2023-02-19T23:40:23.589Z,1.20
2023-02-19T23:42:59.064Z,1.80
2023-02-19T23:45:32.559Z,0.50
2023-02-19T23:48:06.391Z,1.90
2023-02-19T23:50:41.912Z,1.70
2023-02-19T23:53:16.599Z,0.90
2023-02-19T23:55:50.537Z,0.70
2023-02-19T23:58:26.079Z,0.90
